To NAV CANADA Home Page Login to a new session Search on AWWS site Disclaimer Vers la page française équivalente Tips FAQ What's new on the site To the Forecasts and Observations / NOTAM section To "File a Flight Plan" website Publications and other links Update of the User's profile FIC Telephone Numbers My Weather Data Folder Route Weather Data Regional Weather Data Local Weather Data To the Forecasts and Observations / NOTAM section
Request Generated 10/19/2018 at 15:28:28 UTC . Weather information available at that time is displayed.

METAR/TAF

MAYO/YT    

METAR CYMA 191500Z 03005G15KT 20SM BKN090 02/M02 A2977 RMK AS7 SLP110=
METAR CYMA 191400Z 02008KT 350V070 20SM OVC100 02/M02 A2983 RMK AS8 SLP134=
METAR CYMA 191300Z 04007KT 20SM OVC130 01/M02 A2988 RMK AS8 PRESFR SLP149=

TAF CYMA 191142Z 1912/1924 02010KT P6SM SCT100 BKN150 OVC200 TEMPO
1912/1914 BKN100 OVC150
FM191400 02010KT P6SM SCT060 BKN100 OVC200 TEMPO 1914/1916 3SM
-RASN BKN060 OVC100
FM191600 04010G20KT 6SM -RASN SCT020 OVC040 TEMPO 1916/1920 1SM
-SN OVC020
FM192000 04010G20KT P6SM BKN030 OVC060 TEMPO 1920/1924 6SM -RASN
OVC030
RMK NXT FCST BY 191800Z=
Your time UTC time
Weather data provided by Environment Canada and NAV CANADA